Terminal Aerodrome Forecast
Issued by NWS Shreveport, LA

Home | Current Version | Previous Version | Text Only | Print | Product List | Glossary On
Versions: 1 2 3 4 5 6 7 8 9 10 11 12 13 14 15 16 17
000
FTUS44 KSHV 021756
TAFGGG
TAF
KGGG 021756Z 0218/0318 33009KT P6SM BKN015 OVC050
      TEMPO 0218/0222 BKN045 BKN120
     FM022200 33010KT P6SM BKN050 BKN130
     FM030000 34007KT P6SM SCT045 BKN100
     FM030300 34004KT P6SM BKN120
     FM030900 34004KT P6SM SCT100 BKN250
     FM031500 36008KT P6SM SCT100=

USA.gov is the U.S. government's official web portal to all federal, state and local government web resources and services.